Time;durP1;ratioP1;P1;durP2;ratioP2;P2;SDS_P1;SDS_P2;PMS_P1;PMS_P2;Temp;Humidity;BMP_temperature;BMP_pressure;BME280_temperature;BME280_humidity;BME280_pressure;Samples;Min_cycle;Max_cycle;Signal;HPM_P1;HPM_P2
2023/04/02 00:02:19;;;;;;;11.23;3.33;;;4.40;99.90;;;;;;5045806;28;20439;-82
2023/04/02 00:05:18;;;;;;;9.23;3.25;;;5.40;99.90;;;;;;5064276;28;20052;-82
2023/04/02 00:07:52;;;;;;;10.02;3.30;;;3.70;99.90;;;;;;5066186;28;20115;-82
2023/04/02 00:10:28;;;;;;;10.98;3.45;;;4.20;99.90;;;;;;5065647;28;20119;-82
2023/04/02 00:13:00;;;;;;;9.85;3.10;;;3.60;99.90;;;;;;5063378;28;20521;-82
2023/04/02 00:15:26;;;;;;;10.77;3.47;;;3.60;99.90;;;;;;5064712;28;20076;-82
2023/04/02 00:17:52;;;;;;;11.07;3.20;;;3.60;99.90;;;;;;5046407;28;21073;-82
2023/04/02 00:20:19;;;;;;;9.90;3.42;;;4.60;99.90;;;;;;5031003;28;20057;-82
2023/04/02 00:22:45;;;;;;;10.07;3.08;;;3.50;99.90;;;;;;5061835;28;20087;-82
2023/04/02 00:25:13;;;;;;;8.40;3.00;;;3.80;99.90;;;;;;5047230;28;20082;-82
2023/04/02 00:27:39;;;;;;;10.50;3.25;;;4.10;99.90;;;;;;5063551;28;20528;-82
2023/04/02 00:30:05;;;;;;;9.93;3.08;;;3.70;99.90;;;;;;5037601;28;20056;-82
2023/04/02 00:32:34;;;;;;;10.27;3.22;;;3.30;99.90;;;;;;5026576;28;20037;-83
2023/04/02 00:35:00;;;;;;;8.82;3.00;;;3.30;99.90;;;;;;5027713;28;20387;-83
2023/04/02 00:37:28;;;;;;;10.77;3.17;;;3.80;99.90;;;;;;5026865;28;20128;-82
2023/04/02 00:40:00;;;;;;;11.55;3.22;;;4.00;99.90;;;;;;5026410;28;20390;-82
2023/04/02 00:42:30;;;;;;;9.77;3.20;;;3.20;99.90;;;;;;5042511;28;20106;-82
2023/04/02 00:44:57;;;;;;;9.10;2.92;;;3.20;99.90;;;;;;5027297;28;20042;-82
2023/04/02 00:47:36;;;;;;;10.35;3.10;;;3.20;99.90;;;;;;5042184;28;20040;-80
2023/04/02 00:50:26;;;;;;;8.52;3.22;;;3.70;99.90;;;;;;5022872;28;20114;-81
2023/04/02 00:52:53;;;;;;;11.25;3.00;;;3.20;99.90;;;;;;5044875;28;20056;-81
2023/04/02 00:55:38;;;;;;;10.10;3.83;;;3.20;99.90;;;;;;5043160;28;20045;-80
2023/04/02 00:58:18;;;;;;;9.60;3.08;;;3.10;99.90;;;;;;5028557;28;20282;-81
2023/04/02 01:00:49;;;;;;;9.05;3.00;;;3.10;99.90;;;;;;5042085;28;20033;-81
2023/04/02 01:03:18;;;;;;;8.23;2.95;;;3.20;99.90;;;;;;5024546;28;20048;-81
2023/04/02 01:06:04;;;;;;;9.18;3.00;;;3.80;99.90;;;;;;5030129;28;20223;-81
2023/04/02 01:08:48;;;;;;;8.98;2.97;;;3.00;99.90;;;;;;5044507;28;20041;-81
2023/04/02 01:11:38;;;;;;;10.25;3.20;;;3.90;99.90;;;;;;5042341;28;20044;-82
2023/04/02 01:14:19;;;;;;;9.93;2.95;;;3.00;99.90;;;;;;5040271;28;20456;-81
2023/04/02 01:17:02;;;;;;;9.02;2.70;;;2.90;99.90;;;;;;5024857;28;20549;-81
2023/04/02 01:19:51;;;;;;;9.57;2.60;;;2.90;99.90;;;;;;5042729;28;20457;-82
2023/04/02 01:22:46;;;;;;;8.05;2.70;;;2.90;99.90;;;;;;5044257;28;20059;-81
2023/04/02 01:25:27;;;;;;;8.25;2.90;;;2.90;99.90;;;;;;5046506;28;20189;-81
2023/04/02 01:28:19;;;;;;;8.93;2.65;;;4.50;99.90;;;;;;5050258;28;20040;-81
2023/04/02 01:30:54;;;;;;;9.90;2.95;;;2.80;99.90;;;;;;5034497;28;20032;-82
2023/04/02 01:33:27;;;;;;;9.75;2.60;;;3.70;99.90;;;;;;5031656;28;20040;-81
2023/04/02 01:36:00;;;;;;;;;;;4.40;99.90;;;;;;5052378;28;20505;-82
2023/04/02 01:38:41;;;;;;;9.25;2.63;;;2.70;99.90;;;;;;5054228;28;19921;-82
2023/04/02 01:41:10;;;;;;;9.13;2.33;;;2.70;99.90;;;;;;5051037;28;20036;-82
2023/04/02 01:43:51;;;;;;;9.23;2.30;;;3.40;99.90;;;;;;5064110;28;20070;-82
2023/04/02 01:46:47;;;;;;;7.38;2.30;;;2.70;99.90;;;;;;5066695;28;20055;-81
2023/04/02 01:49:21;;;;;;;8.73;2.28;;;3.20;99.90;;;;;;5045062;28;20072;-81
2023/04/02 01:51:52;;;;;;;9.05;2.70;;;2.70;99.90;;;;;;5048185;28;20097;-82
2023/04/02 01:54:20;;;;;;;8.80;2.40;;;3.90;99.90;;;;;;5068447;28;20047;-81
2023/04/02 01:56:46;;;;;;;9.07;2.60;;;3.40;99.90;;;;;;5066518;28;20040;-82
2023/04/02 01:59:15;;;;;;;9.15;2.50;;;2.50;99.90;;;;;;5017642;28;20491;-82
2023/04/02 02:01:51;;;;;;;8.50;2.30;;;3.10;99.90;;;;;;5049905;28;20037;-81
2023/04/02 02:04:17;;;;;;;9.18;3.25;;;2.50;99.90;;;;;;5048923;28;20044;-81
2023/04/02 02:06:46;;;;;;;7.13;2.30;;;2.70;99.90;;;;;;5015095;28;20041;-82
2023/04/02 02:09:20;;;;;;;7.72;2.17;;;2.40;99.90;;;;;;5032688;28;20076;-82
2023/04/02 02:11:47;;;;;;;6.63;1.90;;;2.40;99.90;;;;;;5047688;28;20041;-82
2023/04/02 02:14:18;;;;;;;8.68;2.20;;;2.80;99.90;;;;;;5031164;28;20494;-81
2023/04/02 02:16:45;;;;;;;6.50;1.98;;;2.40;99.90;;;;;;5031721;28;20044;-82
2023/04/02 02:19:35;;;;;;;8.43;2.22;;;2.60;99.90;;;;;;5046318;28;20191;-81
2023/04/02 02:22:35;;;;;;;9.80;2.20;;;2.40;99.90;;;;;;5049157;28;20047;-81
2023/04/02 02:25:05;;;;;;;9.35;2.40;;;2.30;99.90;;;;;;5047518;28;20480;-82
2023/04/02 02:27:51;;;;;;;7.25;1.98;;;2.30;99.90;;;;;;5047793;28;20036;-82
2023/04/02 02:30:27;;;;;;;8.25;2.25;;;2.30;99.90;;;;;;5064614;28;20513;-82
2023/04/02 02:33:15;;;;;;;9.95;2.28;;;2.30;99.90;;;;;;5041830;28;20119;-81
2023/04/02 02:35:51;;;;;;;9.82;2.00;;;2.30;99.90;;;;;;5048990;28;20155;-82
2023/04/02 02:38:40;;;;;;;7.88;2.28;;;2.80;99.90;;;;;;5048802;28;20044;-81
2023/04/02 02:41:27;;;;;;;8.50;2.10;;;2.70;99.90;;;;;;5030231;28;21466;-81
2023/04/02 02:44:18;;;;;;;7.45;2.28;;;2.20;99.90;;;;;;5046941;28;20041;-81
2023/04/02 02:47:18;;;;;;;7.75;2.20;;;2.10;99.90;;;;;;5040351;28;20103;-82
2023/04/02 02:49:48;;;;;;;7.88;2.55;;;2.10;99.90;;;;;;5031054;28;20494;-82
2023/04/02 02:52:33;;;;;;;10.30;2.47;;;2.20;99.90;;;;;;5047558;28;20058;-82
2023/04/02 02:55:03;;;;;;;6.43;2.00;;;2.50;99.90;;;;;;5049072;28;20037;-82
2023/04/02 02:57:32;;;;;;;7.05;1.92;;;2.10;99.90;;;;;;5048732;28;20043;-81
2023/04/02 03:00:00;;;;;;;8.70;2.30;;;2.00;99.90;;;;;;5048207;28;20044;-82
2023/04/02 03:02:27;;;;;;;8.57;2.30;;;3.00;99.90;;;;;;5045250;28;20040;-81
2023/04/02 03:04:54;;;;;;;8.13;2.10;;;2.60;99.90;;;;;;5033505;28;20387;-81
2023/04/02 03:07:24;;;;;;;8.15;2.50;;;2.00;99.90;;;;;;5031911;28;20036;-81
2023/04/02 03:10:11;;;;;;;6.25;2.03;;;3.80;99.90;;;;;;5063369;28;20127;-81
2023/04/02 03:13:12;;;;;;;9.63;1.92;;;2.00;99.90;;;;;;5051752;28;21606;-81
2023/04/02 03:16:00;;;;;;;6.57;1.92;;;2.80;99.90;;;;;;5027573;28;20490;-82
2023/04/02 03:18:47;;;;;;;8.43;2.10;;;2.00;99.90;;;;;;5044868;28;20037;-82
2023/04/02 03:21:38;;;;;;;7.55;2.20;;;1.90;99.90;;;;;;5031778;28;20552;-81
2023/04/02 03:24:18;;;;;;;7.97;2.30;;;2.10;99.90;;;;;;5063074;28;20128;-81
2023/04/02 03:27:16;;;;;;;8.45;2.25;;;1.90;99.90;;;;;;5030665;28;20109;-82
2023/04/02 03:29:50;;;;;;;6.95;2.28;;;3.00;99.90;;;;;;5019693;28;20069;-81
2023/04/02 03:32:21;;;;;;;8.18;2.38;;;1.90;99.90;;;;;;5030719;28;20040;-82
2023/04/02 03:35:08;;;;;;;9.68;2.15;;;2.60;99.90;;;;;;5047409;28;20040;-82
2023/04/02 03:37:45;;;;;;;9.73;1.98;;;1.90;99.90;;;;;;5028027;28;20082;-83
2023/04/02 03:40:23;;;;;;;8.63;2.10;;;1.90;99.90;;;;;;5045838;28;20145;-81
2023/04/02 03:43:05;;;;;;;11.82;2.40;;;1.90;99.90;;;;;;5046881;28;20044;-82
2023/04/02 03:45:42;;;;;;;9.85;2.40;;;1.90;99.90;;;;;;5045963;28;20041;-82
2023/04/02 03:48:24;;;;;;;5.75;2.00;;;1.90;99.90;;;;;;5048685;28;20104;-82
2023/04/02 03:51:01;;;;;;;8.32;2.42;;;1.80;99.90;;;;;;5031298;28;20055;-81
2023/04/02 03:53:28;;;;;;;8.40;2.10;;;3.40;99.90;;;;;;5049329;28;20482;-82
2023/04/02 03:55:55;;;;;;;10.40;2.45;;;3.70;99.90;;;;;;5047198;28;20502;-82
2023/04/02 03:58:36;;;;;;;9.80;2.22;;;3.40;99.90;;;;;;5031052;28;20090;-82
2023/04/02 04:01:23;;;;;;;7.72;2.10;;;1.90;99.90;;;;;;5049965;28;20394;-82
2023/04/02 04:03:55;;;;;;;7.20;1.85;;;1.90;99.90;;;;;;5046218;28;20505;-82
2023/04/02 04:06:28;;;;;;;10.05;2.50;;;1.80;99.90;;;;;;5043623;28;20094;-81
2023/04/02 04:09:08;;;;;;;6.88;2.08;;;1.80;99.90;;;;;;5047507;28;20044;-83
2023/04/02 04:11:38;;;;;;;8.88;2.20;;;1.80;99.90;;;;;;5047399;28;20103;-82
2023/04/02 04:14:32;;;;;;;7.63;2.00;;;1.80;99.90;;;;;;5076493;28;20123;-82
2023/04/02 04:17:29;;;;;;;7.75;2.10;;;1.80;99.90;;;;;;5046692;28;20044;-82
2023/04/02 04:20:16;;;;;;;7.25;1.88;;;1.80;99.90;;;;;;5072741;28;20148;-83
2023/04/02 04:22:42;;;;;;;10.45;2.20;;;1.80;99.90;;;;;;5045053;28;20072;-82
2023/04/02 04:25:28;;;;;;;9.77;2.30;;;2.50;99.90;;;;;;5046246;28;20079;-82
2023/04/02 04:28:16;;;;;;;6.63;1.95;;;1.80;99.90;;;;;;5042067;28;20086;-82
2023/04/02 04:31:08;;;;;;;10.77;2.22;;;1.80;99.90;;;;;;5047194;28;20155;-82
2023/04/02 04:33:40;;;;;;;7.78;2.30;;;1.80;99.90;;;;;;5029665;28;20394;-82
2023/04/02 04:36:27;;;;;;;10.88;2.17;;;3.50;99.90;;;;;;5043993;28;20084;-82
2023/04/02 04:38:58;;;;;;;7.88;2.17;;;1.80;99.90;;;;;;5063891;28;20409;-82
2023/04/02 04:41:35;;;;;;;7.68;1.85;;;2.40;99.90;;;;;;5062033;28;20032;-82
2023/04/02 04:44:17;;;;;;;7.53;2.08;;;1.80;99.90;;;;;;5063749;28;20036;-83
2023/04/02 04:47:03;;;;;;;10.83;2.30;;;1.90;99.90;;;;;;5028702;28;20044;-83
2023/04/02 04:49:43;;;;;;;7.85;2.13;;;1.80;99.90;;;;;;5046414;28;20290;-83
2023/04/02 04:52:24;;;;;;;11.05;2.50;;;1.80;99.90;;;;;;5029023;28;20117;-83
2023/04/02 04:54:50;;;;;;;7.90;2.10;;;1.80;99.90;;;;;;5046938;28;20379;-83
2023/04/02 04:57:24;;;;;;;7.05;2.13;;;1.80;99.90;;;;;;5047584;28;20123;-83
2023/04/02 05:00:05;;;;;;;10.85;2.42;;;1.80;99.90;;;;;;5045469;28;20048;-83
2023/04/02 05:02:45;;;;;;;6.30;1.73;;;1.80;99.90;;;;;;5048124;28;20040;-84
2023/04/02 05:05:39;;;;;;;9.15;2.33;;;1.90;99.90;;;;;;5034063;28;20079;-83
2023/04/02 05:08:20;;;;;;;10.25;2.70;;;1.90;99.90;;;;;;5066714;28;20040;-82
2023/04/02 05:11:00;;;;;;;7.72;2.00;;;1.90;99.90;;;;;;5071333;28;20036;-83
2023/04/02 05:13:32;;;;;;;9.38;2.10;;;1.90;99.90;;;;;;5067799;28;20036;-83
2023/04/02 05:16:27;;;;;;;9.75;2.25;;;1.90;99.90;;;;;;5084420;28;20073;-82
2023/04/02 05:19:09;;;;;;;6.40;1.77;;;1.90;99.90;;;;;;5048541;28;20075;-82
2023/04/02 05:21:44;;;;;;;9.48;2.08;;;1.90;99.90;;;;;;4706905;28;9999991;-80
2023/04/02 05:24:58;;;;;;;8.35;1.90;;;1.90;99.90;;;;;;5040688;28;20063;-80
2023/04/02 05:27:36;;;;;;;7.45;1.90;;;2.00;99.90;;;;;;5030536;28;20052;-80
2023/04/02 05:30:20;;;;;;;7.10;2.08;;;0.80;99.90;;;;;;5045159;28;20041;-81
2023/04/02 05:32:52;;;;;;;9.30;1.95;;;1.90;99.90;;;;;;5052755;28;20103;-80
2023/04/02 05:35:23;;;;;;;10.00;2.00;;;3.20;99.90;;;;;;5048255;28;20039;-81
2023/04/02 05:37:50;;;;;;;6.93;1.83;;;3.40;99.90;;;;;;5027745;28;20549;-81
2023/04/02 05:40:44;;;;;;;7.60;1.95;;;2.80;99.90;;;;;;5046324;28;20041;-81
2023/04/02 05:43:15;;;;;;;7.45;1.88;;;2.00;99.90;;;;;;5029985;28;20124;-81
2023/04/02 05:45:44;;;;;;;7.07;1.85;;;1.80;99.90;;;;;;5061446;28;20094;-80
2023/04/02 05:48:26;;;;;;;7.93;1.95;;;3.70;99.90;;;;;;5028684;28;20047;-80
2023/04/02 05:50:55;;;;;;;5.47;1.60;;;3.40;99.90;;;;;;5045950;28;21394;-81
2023/04/02 05:53:45;;;;;;;9.60;1.92;;;4.00;99.90;;;;;;5048365;28;20037;-80
2023/04/02 05:56:31;;;;;;;9.20;2.20;;;2.20;99.90;;;;;;5063279;28;20117;-80
2023/04/02 05:59:07;;;;;;;6.32;1.85;;;2.30;99.90;;;;;;5028299;28;20105;-80
2023/04/02 06:01:51;;;;;;;10.38;2.13;;;2.30;99.90;;;;;;5028810;28;20074;-81
2023/04/02 06:04:36;;;;;;;6.93;2.35;;;2.30;99.90;;;;;;5043283;28;20071;-81
2023/04/02 06:07:27;;;;;;;7.35;1.95;;;2.40;99.90;;;;;;5046602;28;20087;-82
2023/04/02 06:10:09;;;;;;;8.38;1.90;;;2.50;99.90;;;;;;5027316;28;20140;-81
2023/04/02 06:12:51;;;;;;;9.88;1.92;;;2.50;99.90;;;;;;5027940;28;20497;-81
2023/04/02 06:15:20;;;;;;;6.03;1.75;;;4.00;99.90;;;;;;5047982;28;20112;-81
2023/04/02 06:17:49;;;;;;;11.60;2.20;;;3.90;99.90;;;;;;5063086;28;20051;-81
2023/04/02 06:20:18;;;;;;;6.93;1.70;;;2.70;99.90;;;;;;5045401;28;20040;-81
2023/04/02 06:22:47;;;;;;;9.18;2.00;;;2.70;99.90;;;;;;5042252;28;20051;-81
2023/04/02 06:25:22;;;;;;;8.52;2.05;;;4.10;99.90;;;;;;5012880;28;20094;-81
2023/04/02 06:27:50;;;;;;;9.43;1.80;;;2.90;99.90;;;;;;5048026;28;20196;-80
2023/04/02 06:30:24;;;;;;;8.43;1.80;;;3.00;99.90;;;;;;5030996;28;20086;-81
2023/04/02 06:32:50;;;;;;;10.35;1.88;;;3.70;99.90;;;;;;5046144;28;20394;-81
2023/04/02 06:35:16;;;;;;;6.28;1.67;;;3.90;99.90;;;;;;5028101;28;20039;-81
2023/04/02 06:37:45;;;;;;;9.60;2.33;;;3.80;99.90;;;;;;5029968;28;20044;-81
2023/04/02 06:40:39;;;;;;;9.43;1.80;;;3.40;99.90;;;;;;5030033;28;20462;-81
2023/04/02 06:43:12;;;;;;;;;;;3.50;99.90;;;;;;5059348;28;20036;-81
2023/04/02 06:45:42;;;;;;;5.35;1.73;;;4.30;99.90;;;;;;5043292;28;19921;-81
2023/04/02 06:48:16;;;;;;;11.65;2.15;;;3.70;99.90;;;;;;5029714;28;20091;-81
2023/04/02 06:51:16;;;;;;;7.88;2.05;;;3.80;99.90;;;;;;5030406;28;20446;-81
2023/04/02 06:53:45;;;;;;;7.32;1.80;;;3.70;99.90;;;;;;5040885;28;20640;-81
2023/04/02 06:56:23;;;;;;;11.02;2.45;;;4.10;99.90;;;;;;5026761;28;20127;-81
2023/04/02 06:58:49;;;;;;;9.35;2.25;;;3.80;99.90;;;;;;5047027;28;20052;-81
2023/04/02 07:01:20;;;;;;;8.25;1.77;;;4.10;99.90;;;;;;4995429;28;20028;-81
2023/04/02 07:03:46;;;;;;;9.13;2.00;;;3.70;99.90;;;;;;5044817;28;20043;-81
2023/04/02 07:06:17;;;;;;;6.90;1.83;;;3.80;99.90;;;;;;5031119;28;20041;-81
2023/04/02 07:08:43;;;;;;;7.00;1.83;;;4.10;99.90;;;;;;5044669;28;20039;-81
2023/04/02 07:11:18;;;;;;;6.85;1.73;;;4.80;99.90;;;;;;5030717;28;20129;-81
2023/04/02 07:13:45;;;;;;;8.35;2.08;;;4.20;99.90;;;;;;5040851;28;20044;-81
2023/04/02 07:16:24;;;;;;;7.88;2.00;;;5.40;99.90;;;;;;5043303;28;20055;-81
2023/04/02 07:18:50;;;;;;;8.60;2.00;;;4.20;99.90;;;;;;5044021;28;20123;-81
2023/04/02 07:21:17;;;;;;;7.03;1.80;;;4.20;99.90;;;;;;5046703;28;20445;-81
2023/04/02 07:23:43;;;;;;;8.63;1.80;;;4.80;99.90;;;;;;5045945;28;20056;-80
2023/04/02 07:26:14;;;;;;;12.18;2.08;;;4.30;99.90;;;;;;5011627;28;20044;-81
2023/04/02 07:28:40;;;;;;;6.03;1.77;;;5.00;99.90;;;;;;5042554;28;20044;-81
2023/04/02 07:31:25;;;;;;;6.78;1.90;;;4.80;99.90;;;;;;5044878;28;20417;-81
2023/04/02 07:33:53;;;;;;;9.50;2.00;;;4.30;99.90;;;;;;5028217;28;20115;-81
2023/04/02 07:36:21;;;;;;;6.10;1.88;;;4.70;99.90;;;;;;5010701;28;20051;-81
2023/04/02 07:38:48;;;;;;;9.73;2.10;;;5.30;99.90;;;;;;5040826;28;20124;-81
2023/04/02 07:41:15;;;;;;;8.35;1.98;;;5.00;99.90;;;;;;5044166;28;20041;-81
2023/04/02 07:43:41;;;;;;;7.80;1.95;;;5.20;99.90;;;;;;5029061;28;20056;-81
2023/04/02 07:46:08;;;;;;;7.88;1.95;;;4.60;99.90;;;;;;5045947;28;20040;-80
2023/04/02 07:48:35;;;;;;;7.72;1.90;;;4.50;99.90;;;;;;5045897;28;20263;-81
2023/04/02 07:51:02;;;;;;;8.70;2.05;;;5.00;99.90;;;;;;5028051;28;20032;-81
2023/04/02 07:53:37;;;;;;;7.53;2.20;;;4.50;99.90;;;;;;5029752;28;20055;-80
2023/04/02 07:56:04;;;;;;;7.95;1.63;;;4.60;99.90;;;;;;5047824;28;20499;-81
2023/04/02 07:58:31;;;;;;;8.07;1.77;;;4.80;99.90;;;;;;5031504;28;20067;-80
2023/04/02 08:00:57;;;;;;;8.15;2.08;;;4.90;99.90;;;;;;5044764;28;20044;-81
2023/04/02 08:03:23;;;;;;;8.68;2.15;;;5.40;99.90;;;;;;5042998;28;20251;-81
2023/04/02 08:05:54;;;;;;;9.68;2.05;;;5.10;99.90;;;;;;5003707;28;20088;-81
2023/04/02 08:08:22;;;;;;;8.45;1.95;;;5.00;99.90;;;;;;5045083;28;20497;-81
2023/04/02 08:10:48;;;;;;;8.43;2.20;;;5.40;99.90;;;;;;5047079;28;20048;-81
2023/04/02 08:13:15;;;;;;;6.47;1.70;;;5.10;99.90;;;;;;5014994;28;20040;-81
2023/04/02 08:15:41;;;;;;;7.63;2.00;;;5.10;99.90;;;;;;5046221;28;20068;-81
2023/04/02 08:18:08;;;;;;;7.97;1.88;;;5.10;99.90;;;;;;5028470;28;20043;-81
2023/04/02 08:20:34;;;;;;;7.10;1.92;;;5.80;99.90;;;;;;5038210;28;20384;-80
2023/04/02 08:23:00;;;;;;;7.35;1.40;;;5.30;99.90;;;;;;5047206;28;20322;-81
2023/04/02 08:25:26;;;;;;;6.40;1.60;;;5.40;99.90;;;;;;5030120;28;20107;-81
2023/04/02 08:27:52;;;;;;;9.60;2.15;;;5.30;99.90;;;;;;5013106;28;20181;-81
2023/04/02 08:30:18;;;;;;;7.60;1.80;;;5.30;99.90;;;;;;5012233;28;20072;-80
2023/04/02 08:32:44;;;;;;;8.30;2.10;;;5.70;99.90;;;;;;5043707;28;20041;-81
2023/04/02 08:35:13;;;;;;;6.20;1.73;;;5.50;99.90;;;;;;5042024;28;20086;-81
2023/04/02 08:37:40;;;;;;;7.80;1.65;;;5.60;99.90;;;;;;5034237;28;20028;-80
2023/04/02 08:40:07;;;;;;;7.70;2.10;;;5.70;99.90;;;;;;5048545;28;20390;-81
2023/04/02 08:42:35;;;;;;;6.57;1.90;;;5.80;99.90;;;;;;5064623;28;20036;-82
2023/04/02 08:45:11;;;;;;;7.68;1.90;;;5.70;99.90;;;;;;5029308;28;20072;-80
2023/04/02 08:47:39;;;;;;;7.03;1.80;;;5.80;99.90;;;;;;5050469;28;20037;-81
2023/04/02 08:50:20;;;;;;;7.07;1.70;;;5.80;99.90;;;;;;5035064;28;20044;-80
2023/04/02 08:52:46;;;;;;;8.88;1.85;;;5.90;99.90;;;;;;5035637;28;20044;-81
2023/04/02 08:55:41;;;;;;;7.28;1.80;;;5.90;99.90;;;;;;5032077;28;20044;-81
2023/04/02 08:58:35;;;;;;;7.32;1.98;;;6.00;99.90;;;;;;5045355;28;20187;-80
2023/04/02 09:01:03;;;;;;;9.18;1.70;;;6.00;99.90;;;;;;5049829;28;20052;-80
2023/04/02 09:03:43;;;;;;;9.10;2.17;;;6.10;99.90;;;;;;5049282;28;20532;-80
2023/04/02 09:06:12;;;;;;;8.18;2.10;;;6.20;99.90;;;;;;5049349;28;20048;-80
2023/04/02 09:08:38;;;;;;;7.90;2.00;;;6.30;99.90;;;;;;5034225;28;20198;-80
2023/04/02 09:11:25;;;;;;;8.20;1.90;;;6.30;99.90;;;;;;5023913;28;20076;-81
2023/04/02 09:13:57;;;;;;;9.45;2.38;;;6.40;99.90;;;;;;5061310;28;20048;-82
2023/04/02 09:16:47;;;;;;;9.65;2.00;;;6.40;99.90;;;;;;5042378;28;20036;-81
2023/04/02 09:19:19;;;;;;;7.13;1.60;;;6.50;99.90;;;;;;5044453;28;20040;-81
2023/04/02 09:21:59;;;;;;;7.05;1.95;;;6.50;99.90;;;;;;5051704;28;20505;-81
2023/04/02 09:24:25;;;;;;;5.60;1.80;;;6.50;99.90;;;;;;5050175;28;20055;-81
2023/04/02 09:26:50;;;;;;;5.15;1.65;;;6.60;99.90;;;;;;5033346;28;20052;-81
2023/04/02 09:29:45;;;;;;;7.30;1.73;;;6.70;99.90;;;;;;5033367;28;20058;-81
2023/04/02 09:32:53;;;;;;;7.30;1.75;;;6.80;99.90;;;;;;5048236;28;20051;-81
2023/04/02 09:35:22;;;;;;;7.93;1.77;;;6.90;99.90;;;;;;5032123;28;20040;-81
2023/04/02 09:38:10;;;;;;;7.18;2.00;;;7.00;99.90;;;;;;5033385;28;20062;-81
2023/04/02 09:40:48;;;;;;;7.18;1.70;;;7.10;99.90;;;;;;5049973;28;20049;-82
2023/04/02 09:43:17;;;;;;;8.40;1.65;;;7.10;99.90;;;;;;5079602;28;20044;-81
2023/04/02 09:45:53;;;;;;;7.20;1.67;;;7.20;99.90;;;;;;5049373;28;20040;-82
2023/04/02 09:48:26;;;;;;;5.30;1.80;;;7.30;99.90;;;;;;5046777;28;20086;-82
2023/04/02 09:51:02;;;;;;;;;;;7.60;99.90;;;;;;5077723;28;20051;-82
2023/04/02 09:53:29;;;;;;;5.65;1.80;;;7.00;99.90;;;;;;5047450;28;19931;-82
2023/04/02 09:56:06;;;;;;;6.38;1.70;;;7.30;99.90;;;;;;5029693;28;20124;-80
2023/04/02 09:58:32;;;;;;;8.25;2.10;;;7.40;99.90;;;;;;5026623;28;20044;-80
2023/04/02 10:00:59;;;;;;;6.38;1.85;;;7.40;99.90;;;;;;5028106;28;20036;-80
2023/04/02 10:03:27;;;;;;;7.78;1.85;;;7.50;99.90;;;;;;5010648;28;20116;-81
2023/04/02 10:06:11;;;;;;;5.72;1.70;;;7.60;99.90;;;;;;5042244;28;20040;-81
2023/04/02 10:08:39;;;;;;;6.18;1.70;;;7.70;99.90;;;;;;5029967;28;20041;-80
2023/04/02 10:11:11;;;;;;;6.55;1.75;;;7.70;99.90;;;;;;5079609;28;20076;-81
2023/04/02 10:14:00;;;;;;;7.32;1.92;;;7.80;99.90;;;;;;5057396;28;20052;-81
2023/04/02 10:16:35;;;;;;;6.95;1.80;;;7.90;99.90;;;;;;5026106;28;20036;-81
2023/04/02 10:19:35;;;;;;;6.88;1.58;;;7.90;99.90;;;;;;5042936;28;20036;-81
2023/04/02 10:22:22;;;;;;;6.55;1.73;;;7.90;99.90;;;;;;5040174;28;20127;-81
2023/04/02 10:24:48;;;;;;;6.88;2.10;;;7.90;99.90;;;;;;5043259;28;20124;-81
2023/04/02 10:27:21;;;;;;;6.90;1.80;;;7.90;99.90;;;;;;5047917;28;20032;-81
2023/04/02 10:30:07;;;;;;;5.53;1.90;;;8.10;99.90;;;;;;5047492;28;20406;-81
2023/04/02 10:32:59;;;;;;;6.25;1.73;;;8.10;99.90;;;;;;5047142;28;20406;-81
2023/04/02 10:35:52;;;;;;;7.97;1.80;;;8.10;99.90;;;;;;5042088;28;20052;-81
2023/04/02 10:38:27;;;;;;;4.93;1.80;;;8.20;99.90;;;;;;5031438;28;21470;-81
2023/04/02 10:41:20;;;;;;;6.68;1.77;;;8.30;99.90;;;;;;5046456;28;20123;-81
2023/04/02 10:44:12;;;;;;;6.72;1.60;;;8.30;99.90;;;;;;5046956;28;20087;-81
2023/04/02 10:46:45;;;;;;;7.10;1.60;;;8.30;99.90;;;;;;5030554;28;20036;-81
2023/04/02 10:49:30;;;;;;;;;;;8.30;99.90;;;;;;5032819;28;20068;-81
2023/04/02 10:52:02;;;;;;;6.35;1.50;;;8.30;99.90;;;;;;5078810;28;20385;-81
2023/04/02 10:54:50;;;;;;;4.60;1.38;;;8.40;99.90;;;;;;5032525;28;20036;-81
2023/04/02 10:57:34;;;;;;;4.13;1.45;;;8.30;99.90;;;;;;5030711;28;20040;-81
2023/04/02 11:00:08;;;;;;;5.18;1.40;;;8.40;99.90;;;;;;5045194;28;20044;-80
2023/04/02 11:03:04;;;;;;;4.35;1.48;;;8.40;99.90;;;;;;5045395;28;20066;-78
2023/04/02 11:05:43;;;;;;;6.68;1.48;;;8.50;99.90;;;;;;5046377;28;20051;-81
2023/04/02 11:08:30;;;;;;;4.88;1.50;;;8.60;99.90;;;;;;5031019;28;20153;-80
2023/04/02 11:11:06;;;;;;;6.50;1.63;;;8.70;99.90;;;;;;5045254;28;20190;-79
2023/04/02 11:13:40;;;;;;;4.07;1.30;;;8.70;99.90;;;;;;5030621;28;20032;-78
2023/04/02 11:16:06;;;;;;;6.32;1.63;;;8.70;99.90;;;;;;5047319;28;20041;-81
2023/04/02 11:18:37;;;;;;;5.75;1.40;;;8.70;99.90;;;;;;5031665;28;20483;-78
2023/04/02 11:21:40;;;;;;;4.13;1.33;;;8.70;99.90;;;;;;5047054;28;20033;-79
2023/04/02 11:24:35;;;;;;;8.05;1.45;;;8.80;99.90;;;;;;5030168;28;20094;-79
2023/04/02 11:27:10;;;;;;;8.07;1.70;;;8.70;99.90;;;;;;5077726;28;20120;-79
2023/04/02 11:29:54;;;;;;;7.20;1.65;;;8.80;99.90;;;;;;5047840;28;20082;-79
2023/04/02 11:32:24;;;;;;;5.57;1.40;;;8.90;99.90;;;;;;5047664;28;20032;-79
2023/04/02 11:34:50;;;;;;;5.40;1.30;;;8.90;99.90;;;;;;5047097;28;20043;-79
2023/04/02 11:37:38;;;;;;;3.22;1.13;;;8.90;99.90;;;;;;5027872;28;21572;-80
2023/04/02 11:40:10;;;;;;;3.53;1.30;;;8.80;99.90;;;;;;5047053;28;20127;-79
2023/04/02 11:42:44;;;;;;;5.13;1.40;;;8.80;99.90;;;;;;5046293;28;20048;-80
2023/04/02 11:45:22;;;;;;;5.50;1.40;;;8.80;99.90;;;;;;5030864;28;20044;-80
2023/04/02 11:48:00;;;;;;;4.57;1.30;;;8.90;99.90;;;;;;5047997;28;20041;-79
2023/04/02 11:50:29;;;;;;;6.05;1.55;;;9.00;99.90;;;;;;5019016;28;20069;-79
2023/04/02 11:53:17;;;;;;;4.07;1.30;;;9.00;99.90;;;;;;5030212;28;20504;-80
2023/04/02 11:55:46;;;;;;;6.57;1.60;;;9.10;99.90;;;;;;5037506;28;20051;-80
2023/04/02 11:58:42;;;;;;;4.97;1.40;;;9.10;99.90;;;;;;5047386;28;20066;-79
2023/04/02 12:01:47;;;;;;;3.15;1.20;;;9.20;99.90;;;;;;5046926;28;20045;-79
2023/04/02 12:04:31;;;;;;;3.95;1.25;;;9.20;99.90;;;;;;5029865;28;20589;-79
2023/04/02 12:07:33;;;;;;;6.10;1.83;;;9.20;99.90;;;;;;5061759;28;20115;-80
2023/04/02 12:10:04;;;;;;;2.67;1.13;;;9.20;99.90;;;;;;5030114;28;20044;-79
2023/04/02 12:12:39;;;;;;;4.78;1.40;;;9.20;99.90;;;;;;5046938;28;20131;-80
2023/04/02 12:15:26;;;;;;;6.95;1.58;;;9.20;99.90;;;;;;5046779;28;20383;-79
2023/04/02 12:18:01;;;;;;;6.50;1.63;;;9.30;99.90;;;;;;5047220;28;20040;-80
2023/04/02 12:20:29;;;;;;;4.18;1.35;;;9.30;99.90;;;;;;5030536;28;20115;-80
2023/04/02 12:22:57;;;;;;;8.38;1.73;;;9.20;99.90;;;;;;5045506;28;20668;-79
2023/04/02 12:25:45;;;;;;;4.78;1.58;;;9.30;99.90;;;;;;5025936;28;20045;-79
2023/04/02 12:28:19;;;;;;;4.70;1.20;;;9.40;99.90;;;;;;5042475;28;20059;-79
2023/04/02 12:30:46;;;;;;;5.72;1.42;;;9.40;99.90;;;;;;5040611;28;20522;-79
2023/04/02 12:33:18;;;;;;;6.47;1.77;;;9.40;99.90;;;;;;5026760;28;20076;-80
2023/04/02 12:35:46;;;;;;;6.50;1.40;;;9.50;99.90;;;;;;5042240;28;20432;-80
2023/04/02 12:38:25;;;;;;;4.20;1.35;;;9.50;99.90;;;;;;5041611;28;20052;-80
2023/04/02 12:40:59;;;;;;;4.60;1.27;;;9.50;99.90;;;;;;5041375;28;20163;-80
2023/04/02 12:43:31;;;;;;;5.20;1.40;;;9.40;99.90;;;;;;5042332;28;20155;-80
2023/04/02 12:46:15;;;;;;;5.25;1.67;;;9.30;99.90;;;;;;5043067;28;20063;-80
2023/04/02 12:48:41;;;;;;;4.53;1.38;;;9.40;99.90;;;;;;5009465;28;20051;-80
2023/04/02 12:51:07;;;;;;;5.10;1.60;;;9.50;99.90;;;;;;5042699;28;20040;-80
2023/04/02 12:53:38;;;;;;;5.32;1.42;;;9.50;99.90;;;;;;5009139;28;20461;-80
2023/04/02 12:56:04;;;;;;;5.85;1.50;;;9.50;99.90;;;;;;5042146;28;20104;-80
2023/04/02 12:58:37;;;;;;;4.78;1.38;;;9.40;99.90;;;;;;5043310;28;20041;-80
2023/04/02 13:01:12;;;;;;;6.50;1.60;;;9.50;99.90;;;;;;5040844;28;20390;-80
2023/04/02 13:03:38;;;;;;;3.55;1.27;;;9.50;99.90;;;;;;5034995;28;20068;-80
2023/04/02 13:06:22;;;;;;;4.50;1.30;;;9.50;99.90;;;;;;5024415;28;20071;-80
2023/04/02 13:08:48;;;;;;;3.70;1.50;;;9.50;99.90;;;;;;5042603;28;20071;-79
2023/04/02 13:11:14;;;;;;;4.22;1.25;;;9.70;99.90;;;;;;5038928;28;20041;-80
2023/04/02 13:13:42;;;;;;;5.65;1.67;;;9.60;99.90;;;;;;5026591;28;20032;-80
2023/04/02 13:16:14;;;;;;;7.25;1.50;;;9.60;99.90;;;;;;5025465;28;20036;-79
2023/04/02 13:18:42;;;;;;;5.88;1.60;;;9.50;99.90;;;;;;5043310;28;20036;-80
2023/04/02 13:21:28;;;;;;;4.82;1.40;;;9.60;99.90;;;;;;5027853;28;20056;-80
2023/04/02 13:23:54;;;;;;;5.07;1.42;;;9.70;99.90;;;;;;5049449;28;20033;-79
2023/04/02 13:26:28;;;;;;;5.90;1.50;;;9.90;99.90;;;;;;5055411;28;20120;-79
2023/04/02 13:28:56;;;;;;;4.65;1.50;;;9.80;99.90;;;;;;5057070;28;20152;-80
2023/04/02 13:31:22;;;;;;;5.70;1.40;;;9.70;99.90;;;;;;5046477;28;20049;-80
2023/04/02 13:33:47;;;;;;;3.72;1.30;;;9.70;99.90;;;;;;5043055;28;20137;-77
2023/04/02 13:36:14;;;;;;;3.40;1.30;;;9.70;99.90;;;;;;5035350;28;20048;-78
2023/04/02 13:38:40;;;;;;;4.53;1.40;;;9.80;99.90;;;;;;5055408;28;20047;-78
2023/04/02 13:41:25;;;;;;;4.30;1.40;;;9.80;99.90;;;;;;5038417;28;20488;-78
2023/04/02 13:43:56;;;;;;;4.97;1.40;;;10.00;99.90;;;;;;5053115;28;20094;-79
2023/04/02 13:46:32;;;;;;;5.13;1.50;;;10.00;99.90;;;;;;5050451;28;20470;-79